sensor_id;sensor_type;location;lat;lon;timestamp;P1;durP1;ratioP1;P2;durP2;ratioP2
13483;SDS011;6814;57.786;12.080;2022-12-07T00:01:46;14.90;;;6.37;;
13483;SDS011;6814;57.786;12.080;2022-12-07T00:04:13;9.70;;;6.33;;
13483;SDS011;6814;57.786;12.080;2022-12-07T00:06:40;15.77;;;7.10;;
13483;SDS011;6814;57.786;12.080;2022-12-07T00:09:10;12.07;;;6.50;;
13483;SDS011;6814;57.786;12.080;2022-12-07T00:11:37;11.33;;;6.53;;
13483;SDS011;6814;57.786;12.080;2022-12-07T00:14:04;14.33;;;6.90;;
13483;SDS011;6814;57.786;12.080;2022-12-07T00:16:32;13.93;;;6.50;;
13483;SDS011;6814;57.786;12.080;2022-12-07T00:18:58;12.13;;;6.00;;
13483;SDS011;6814;57.786;12.080;2022-12-07T00:21:25;12.00;;;6.93;;
13483;SDS011;6814;57.786;12.080;2022-12-07T00:23:53;12.17;;;6.60;;
13483;SDS011;6814;57.786;12.080;2022-12-07T00:26:21;14.57;;;7.37;;
13483;SDS011;6814;57.786;12.080;2022-12-07T00:28:48;11.90;;;6.87;;
13483;SDS011;6814;57.786;12.080;2022-12-07T00:31:16;12.57;;;7.03;;
13483;SDS011;6814;57.786;12.080;2022-12-07T00:33:43;13.47;;;7.27;;
13483;SDS011;6814;57.786;12.080;2022-12-07T00:36:10;9.80;;;6.70;;
13483;SDS011;6814;57.786;12.080;2022-12-07T00:38:37;11.77;;;6.83;;
13483;SDS011;6814;57.786;12.080;2022-12-07T00:41:04;14.40;;;7.13;;
13483;SDS011;6814;57.786;12.080;2022-12-07T00:43:33;13.07;;;6.57;;
13483;SDS011;6814;57.786;12.080;2022-12-07T00:45:59;11.93;;;7.40;;
13483;SDS011;6814;57.786;12.080;2022-12-07T00:48:26;13.33;;;7.40;;
13483;SDS011;6814;57.786;12.080;2022-12-07T00:50:52;11.37;;;7.20;;
13483;SDS011;6814;57.786;12.080;2022-12-07T00:53:19;12.10;;;6.50;;
13483;SDS011;6814;57.786;12.080;2022-12-07T00:55:45;16.13;;;7.90;;
13483;SDS011;6814;57.786;12.080;2022-12-07T00:58:12;15.30;;;7.60;;
13483;SDS011;6814;57.786;12.080;2022-12-07T01:00:40;16.37;;;7.23;;
13483;SDS011;6814;57.786;12.080;2022-12-07T01:03:07;12.27;;;7.17;;
13483;SDS011;6814;57.786;12.080;2022-12-07T01:05:34;10.87;;;6.73;;
13483;SDS011;6814;57.786;12.080;2022-12-07T01:08:00;12.60;;;6.90;;
13483;SDS011;6814;57.786;12.080;2022-12-07T01:10:27;11.20;;;6.53;;
13483;SDS011;6814;57.786;12.080;2022-12-07T01:12:55;12.63;;;6.90;;
13483;SDS011;6814;57.786;12.080;2022-12-07T01:15:21;15.10;;;7.07;;
13483;SDS011;6814;57.786;12.080;2022-12-07T01:17:49;13.33;;;7.37;;
13483;SDS011;6814;57.786;12.080;2022-12-07T01:20:15;13.90;;;7.77;;
13483;SDS011;6814;57.786;12.080;2022-12-07T01:22:42;12.50;;;7.00;;
13483;SDS011;6814;57.786;12.080;2022-12-07T01:25:09;13.90;;;7.00;;
13483;SDS011;6814;57.786;12.080;2022-12-07T01:27:36;14.53;;;7.27;;
13483;SDS011;6814;57.786;12.080;2022-12-07T01:30:03;14.70;;;7.27;;
13483;SDS011;6814;57.786;12.080;2022-12-07T01:32:31;15.57;;;7.50;;
13483;SDS011;6814;57.786;12.080;2022-12-07T01:34:59;11.63;;;7.30;;
13483;SDS011;6814;57.786;12.080;2022-12-07T01:37:25;14.33;;;7.40;;
13483;SDS011;6814;57.786;12.080;2022-12-07T01:39:51;12.83;;;7.80;;
13483;SDS011;6814;57.786;12.080;2022-12-07T01:42:18;12.13;;;7.20;;
13483;SDS011;6814;57.786;12.080;2022-12-07T01:47:29;14.40;;;7.47;;
13483;SDS011;6814;57.786;12.080;2022-12-07T01:49:56;11.93;;;6.93;;
13483;SDS011;6814;57.786;12.080;2022-12-07T01:52:25;11.73;;;7.07;;
13483;SDS011;6814;57.786;12.080;2022-12-07T01:54:54;12.97;;;7.27;;
13483;SDS011;6814;57.786;12.080;2022-12-07T01:57:23;14.17;;;7.47;;
13483;SDS011;6814;57.786;12.080;2022-12-07T01:59:50;12.80;;;7.23;;
13483;SDS011;6814;57.786;12.080;2022-12-07T02:02:17;10.33;;;7.07;;
13483;SDS011;6814;57.786;12.080;2022-12-07T02:04:45;12.07;;;6.97;;
13483;SDS011;6814;57.786;12.080;2022-12-07T02:07:12;11.80;;;6.80;;
13483;SDS011;6814;57.786;12.080;2022-12-07T02:09:40;10.33;;;7.47;;
13483;SDS011;6814;57.786;12.080;2022-12-07T02:12:06;11.00;;;6.70;;
13483;SDS011;6814;57.786;12.080;2022-12-07T02:14:33;12.33;;;7.50;;
13483;SDS011;6814;57.786;12.080;2022-12-07T02:17:02;11.77;;;7.00;;
13483;SDS011;6814;57.786;12.080;2022-12-07T02:19:59;12.67;;;7.40;;
13483;SDS011;6814;57.786;12.080;2022-12-07T02:22:35;13.33;;;6.63;;
13483;SDS011;6814;57.786;12.080;2022-12-07T02:25:12;10.30;;;6.80;;
13483;SDS011;6814;57.786;12.080;2022-12-07T02:27:44;12.03;;;6.53;;
13483;SDS011;6814;57.786;12.080;2022-12-07T02:30:13;9.67;;;6.63;;
13483;SDS011;6814;57.786;12.080;2022-12-07T02:32:42;10.37;;;6.53;;
13483;SDS011;6814;57.786;12.080;2022-12-07T02:35:11;8.50;;;6.07;;
13483;SDS011;6814;57.786;12.080;2022-12-07T02:37:39;10.47;;;6.37;;
13483;SDS011;6814;57.786;12.080;2022-12-07T02:40:09;7.50;;;5.70;;
13483;SDS011;6814;57.786;12.080;2022-12-07T02:42:38;9.47;;;5.43;;
13483;SDS011;6814;57.786;12.080;2022-12-07T02:45:06;11.60;;;5.30;;
13483;SDS011;6814;57.786;12.080;2022-12-07T02:47:36;7.07;;;4.67;;
13483;SDS011;6814;57.786;12.080;2022-12-07T02:50:03;8.73;;;5.13;;
13483;SDS011;6814;57.786;12.080;2022-12-07T02:52:30;7.03;;;4.50;;
13483;SDS011;6814;57.786;12.080;2022-12-07T02:54:56;7.70;;;4.33;;
13483;SDS011;6814;57.786;12.080;2022-12-07T02:57:29;8.37;;;5.13;;
13483;SDS011;6814;57.786;12.080;2022-12-07T03:00:01;7.07;;;4.40;;
13483;SDS011;6814;57.786;12.080;2022-12-07T03:02:32;10.07;;;5.07;;
13483;SDS011;6814;57.786;12.080;2022-12-07T03:05:03;7.83;;;5.13;;
13483;SDS011;6814;57.786;12.080;2022-12-07T03:07:33;9.37;;;4.80;;
13483;SDS011;6814;57.786;12.080;2022-12-07T03:10:07;8.43;;;5.23;;
13483;SDS011;6814;57.786;12.080;2022-12-07T03:12:35;8.40;;;4.80;;
13483;SDS011;6814;57.786;12.080;2022-12-07T03:15:04;7.70;;;5.40;;
13483;SDS011;6814;57.786;12.080;2022-12-07T03:17:32;6.93;;;5.23;;
13483;SDS011;6814;57.786;12.080;2022-12-07T03:20:04;10.60;;;5.63;;
13483;SDS011;6814;57.786;12.080;2022-12-07T03:22:33;9.03;;;5.03;;
13483;SDS011;6814;57.786;12.080;2022-12-07T03:25:00;7.53;;;5.00;;
13483;SDS011;6814;57.786;12.080;2022-12-07T03:27:30;9.10;;;4.70;;
13483;SDS011;6814;57.786;12.080;2022-12-07T03:29:58;9.03;;;5.23;;
13483;SDS011;6814;57.786;12.080;2022-12-07T03:32:25;8.23;;;4.70;;
13483;SDS011;6814;57.786;12.080;2022-12-07T03:34:55;6.17;;;4.93;;
13483;SDS011;6814;57.786;12.080;2022-12-07T03:37:26;8.73;;;4.80;;
13483;SDS011;6814;57.786;12.080;2022-12-07T03:39:56;7.40;;;4.27;;
13483;SDS011;6814;57.786;12.080;2022-12-07T03:42:25;8.13;;;4.40;;
13483;SDS011;6814;57.786;12.080;2022-12-07T03:44:52;8.23;;;4.27;;
13483;SDS011;6814;57.786;12.080;2022-12-07T03:47:20;6.57;;;4.23;;
13483;SDS011;6814;57.786;12.080;2022-12-07T03:49:51;7.47;;;4.47;;
13483;SDS011;6814;57.786;12.080;2022-12-07T03:52:20;6.77;;;4.13;;
13483;SDS011;6814;57.786;12.080;2022-12-07T03:54:52;5.40;;;3.87;;
13483;SDS011;6814;57.786;12.080;2022-12-07T03:57:21;4.73;;;3.70;;
13483;SDS011;6814;57.786;12.080;2022-12-07T03:59:48;8.57;;;4.17;;
13483;SDS011;6814;57.786;12.080;2022-12-07T04:02:15;7.30;;;3.93;;
13483;SDS011;6814;57.786;12.080;2022-12-07T04:04:41;6.23;;;3.90;;
13483;SDS011;6814;57.786;12.080;2022-12-07T04:07:08;6.93;;;3.67;;
13483;SDS011;6814;57.786;12.080;2022-12-07T04:09:35;7.30;;;3.17;;
13483;SDS011;6814;57.786;12.080;2022-12-07T04:12:03;5.60;;;2.97;;
13483;SDS011;6814;57.786;12.080;2022-12-07T04:14:30;5.53;;;2.73;;
13483;SDS011;6814;57.786;12.080;2022-12-07T04:16:57;4.40;;;2.33;;
13483;SDS011;6814;57.786;12.080;2022-12-07T04:19:24;2.70;;;2.23;;
13483;SDS011;6814;57.786;12.080;2022-12-07T04:21:50;4.13;;;1.83;;
13483;SDS011;6814;57.786;12.080;2022-12-07T04:24:17;3.13;;;1.90;;
13483;SDS011;6814;57.786;12.080;2022-12-07T04:26:44;4.47;;;2.10;;
13483;SDS011;6814;57.786;12.080;2022-12-07T04:29:12;3.10;;;1.87;;
13483;SDS011;6814;57.786;12.080;2022-12-07T04:31:38;3.07;;;2.07;;
13483;SDS011;6814;57.786;12.080;2022-12-07T04:34:06;4.10;;;1.87;;
13483;SDS011;6814;57.786;12.080;2022-12-07T04:36:32;3.30;;;1.60;;
13483;SDS011;6814;57.786;12.080;2022-12-07T04:38:59;3.73;;;1.83;;
13483;SDS011;6814;57.786;12.080;2022-12-07T04:41:26;4.93;;;2.20;;
13483;SDS011;6814;57.786;12.080;2022-12-07T04:43:53;4.83;;;2.37;;
13483;SDS011;6814;57.786;12.080;2022-12-07T04:46:22;3.87;;;1.67;;
13483;SDS011;6814;57.786;12.080;2022-12-07T04:48:48;5.80;;;2.00;;
13483;SDS011;6814;57.786;12.080;2022-12-07T04:51:15;3.40;;;1.97;;
13483;SDS011;6814;57.786;12.080;2022-12-07T04:53:44;2.90;;;1.80;;
13483;SDS011;6814;57.786;12.080;2022-12-07T04:56:10;3.40;;;2.00;;
13483;SDS011;6814;57.786;12.080;2022-12-07T04:58:37;4.53;;;2.00;;
13483;SDS011;6814;57.786;12.080;2022-12-07T05:01:03;4.27;;;1.97;;
13483;SDS011;6814;57.786;12.080;2022-12-07T05:03:31;4.77;;;2.37;;
13483;SDS011;6814;57.786;12.080;2022-12-07T05:05:57;3.00;;;1.70;;
13483;SDS011;6814;57.786;12.080;2022-12-07T05:08:24;4.83;;;2.20;;
13483;SDS011;6814;57.786;12.080;2022-12-07T05:10:50;2.50;;;2.10;;
13483;SDS011;6814;57.786;12.080;2022-12-07T05:13:17;3.90;;;2.20;;
13483;SDS011;6814;57.786;12.080;2022-12-07T05:15:43;3.13;;;2.30;;
13483;SDS011;6814;57.786;12.080;2022-12-07T05:18:09;5.70;;;2.80;;
13483;SDS011;6814;57.786;12.080;2022-12-07T05:20:38;4.90;;;2.63;;
13483;SDS011;6814;57.786;12.080;2022-12-07T05:23:05;2.87;;;2.33;;
13483;SDS011;6814;57.786;12.080;2022-12-07T05:25:31;2.87;;;2.57;;
13483;SDS011;6814;57.786;12.080;2022-12-07T05:27:58;4.77;;;3.00;;
13483;SDS011;6814;57.786;12.080;2022-12-07T05:30:25;4.23;;;2.80;;
13483;SDS011;6814;57.786;12.080;2022-12-07T05:32:52;4.90;;;3.00;;
13483;SDS011;6814;57.786;12.080;2022-12-07T05:35:18;5.53;;;3.13;;
13483;SDS011;6814;57.786;12.080;2022-12-07T05:37:47;5.50;;;3.37;;
13483;SDS011;6814;57.786;12.080;2022-12-07T05:40:13;4.47;;;3.10;;
13483;SDS011;6814;57.786;12.080;2022-12-07T05:42:40;5.87;;;3.20;;
13483;SDS011;6814;57.786;12.080;2022-12-07T05:45:08;3.67;;;2.57;;
13483;SDS011;6814;57.786;12.080;2022-12-07T05:47:36;6.17;;;3.50;;
13483;SDS011;6814;57.786;12.080;2022-12-07T05:50:03;5.20;;;3.03;;
13483;SDS011;6814;57.786;12.080;2022-12-07T05:52:31;5.60;;;3.27;;
13483;SDS011;6814;57.786;12.080;2022-12-07T05:54:59;3.83;;;2.63;;
13483;SDS011;6814;57.786;12.080;2022-12-07T05:57:25;4.43;;;3.20;;
13483;SDS011;6814;57.786;12.080;2022-12-07T05:59:51;4.60;;;3.10;;
13483;SDS011;6814;57.786;12.080;2022-12-07T06:02:17;4.27;;;3.07;;
13483;SDS011;6814;57.786;12.080;2022-12-07T06:04:44;5.03;;;2.97;;
13483;SDS011;6814;57.786;12.080;2022-12-07T06:07:11;4.40;;;2.87;;
13483;SDS011;6814;57.786;12.080;2022-12-07T06:09:38;4.43;;;2.90;;
13483;SDS011;6814;57.786;12.080;2022-12-07T06:12:06;4.70;;;2.97;;
13483;SDS011;6814;57.786;12.080;2022-12-07T06:14:52;4.43;;;2.80;;
13483;SDS011;6814;57.786;12.080;2022-12-07T06:17:19;3.63;;;2.90;;
13483;SDS011;6814;57.786;12.080;2022-12-07T06:19:45;3.27;;;2.50;;
13483;SDS011;6814;57.786;12.080;2022-12-07T06:22:12;4.93;;;3.00;;
13483;SDS011;6814;57.786;12.080;2022-12-07T06:24:41;5.27;;;3.00;;
13483;SDS011;6814;57.786;12.080;2022-12-07T06:27:09;4.80;;;2.87;;
13483;SDS011;6814;57.786;12.080;2022-12-07T06:29:35;5.63;;;2.60;;
13483;SDS011;6814;57.786;12.080;2022-12-07T06:32:02;4.63;;;2.57;;
13483;SDS011;6814;57.786;12.080;2022-12-07T06:34:29;5.07;;;2.33;;
13483;SDS011;6814;57.786;12.080;2022-12-07T06:36:56;2.60;;;2.13;;
13483;SDS011;6814;57.786;12.080;2022-12-07T06:39:23;4.60;;;2.10;;
13483;SDS011;6814;57.786;12.080;2022-12-07T06:41:50;3.33;;;2.10;;
13483;SDS011;6814;57.786;12.080;2022-12-07T06:44:19;3.57;;;2.30;;
13483;SDS011;6814;57.786;12.080;2022-12-07T06:46:46;3.17;;;2.20;;
13483;SDS011;6814;57.786;12.080;2022-12-07T06:49:13;4.20;;;2.17;;
13483;SDS011;6814;57.786;12.080;2022-12-07T06:51:43;2.27;;;2.07;;
13483;SDS011;6814;57.786;12.080;2022-12-07T06:54:17;3.10;;;1.97;;
13483;SDS011;6814;57.786;12.080;2022-12-07T06:56:43;3.20;;;1.90;;
13483;SDS011;6814;57.786;12.080;2022-12-07T06:59:13;3.00;;;2.00;;
13483;SDS011;6814;57.786;12.080;2022-12-07T07:01:44;3.00;;;1.80;;
13483;SDS011;6814;57.786;12.080;2022-12-07T07:04:13;3.10;;;1.73;;
13483;SDS011;6814;57.786;12.080;2022-12-07T07:06:41;2.97;;;1.93;;
13483;SDS011;6814;57.786;12.080;2022-12-07T07:09:08;3.43;;;1.67;;
13483;SDS011;6814;57.786;12.080;2022-12-07T07:11:38;2.10;;;1.70;;
13483;SDS011;6814;57.786;12.080;2022-12-07T07:14:07;3.17;;;2.10;;
13483;SDS011;6814;57.786;12.080;2022-12-07T07:16:33;4.07;;;1.63;;
13483;SDS011;6814;57.786;12.080;2022-12-07T07:19:07;3.70;;;1.70;;
13483;SDS011;6814;57.786;12.080;2022-12-07T07:21:34;2.67;;;1.63;;
13483;SDS011;6814;57.786;12.080;2022-12-07T07:24:05;4.20;;;1.93;;
13483;SDS011;6814;57.786;12.080;2022-12-07T07:26:35;2.83;;;1.60;;
13483;SDS011;6814;57.786;12.080;2022-12-07T07:29:09;3.00;;;2.20;;
13483;SDS011;6814;57.786;12.080;2022-12-07T07:31:40;3.93;;;2.83;;
13483;SDS011;6814;57.786;12.080;2022-12-07T07:34:13;2.90;;;2.33;;
13483;SDS011;6814;57.786;12.080;2022-12-07T07:36:43;4.90;;;2.70;;
13483;SDS011;6814;57.786;12.080;2022-12-07T07:39:10;3.57;;;2.30;;
13483;SDS011;6814;57.786;12.080;2022-12-07T07:41:37;5.00;;;2.77;;
13483;SDS011;6814;57.786;12.080;2022-12-07T07:44:04;4.67;;;2.73;;
13483;SDS011;6814;57.786;12.080;2022-12-07T07:46:33;3.93;;;2.87;;
13483;SDS011;6814;57.786;12.080;2022-12-07T07:49:01;5.73;;;3.13;;
13483;SDS011;6814;57.786;12.080;2022-12-07T07:51:39;3.63;;;2.53;;
13483;SDS011;6814;57.786;12.080;2022-12-07T07:54:15;5.23;;;2.47;;
13483;SDS011;6814;57.786;12.080;2022-12-07T07:56:45;3.90;;;2.60;;
13483;SDS011;6814;57.786;12.080;2022-12-07T07:59:17;3.77;;;2.50;;
13483;SDS011;6814;57.786;12.080;2022-12-07T08:01:50;3.83;;;2.40;;
13483;SDS011;6814;57.786;12.080;2022-12-07T08:04:20;2.90;;;2.33;;
13483;SDS011;6814;57.786;12.080;2022-12-07T08:06:50;4.10;;;2.17;;
13483;SDS011;6814;57.786;12.080;2022-12-07T08:09:18;4.97;;;2.53;;
13483;SDS011;6814;57.786;12.080;2022-12-07T08:11:45;4.40;;;2.30;;
13483;SDS011;6814;57.786;12.080;2022-12-07T08:14:17;2.53;;;2.23;;
13483;SDS011;6814;57.786;12.080;2022-12-07T08:16:43;3.17;;;2.23;;
13483;SDS011;6814;57.786;12.080;2022-12-07T08:19:10;3.07;;;2.10;;
13483;SDS011;6814;57.786;12.080;2022-12-07T08:21:37;3.00;;;2.17;;
13483;SDS011;6814;57.786;12.080;2022-12-07T08:24:08;3.23;;;2.23;;
13483;SDS011;6814;57.786;12.080;2022-12-07T08:26:35;4.67;;;2.20;;
13483;SDS011;6814;57.786;12.080;2022-12-07T08:29:02;2.73;;;2.10;;
13483;SDS011;6814;57.786;12.080;2022-12-07T08:31:28;3.60;;;2.37;;
13483;SDS011;6814;57.786;12.080;2022-12-07T08:33:54;2.73;;;2.20;;
13483;SDS011;6814;57.786;12.080;2022-12-07T08:36:21;3.03;;;2.30;;
13483;SDS011;6814;57.786;12.080;2022-12-07T08:38:47;4.43;;;2.63;;
13483;SDS011;6814;57.786;12.080;2022-12-07T08:41:15;2.20;;;2.00;;
13483;SDS011;6814;57.786;12.080;2022-12-07T08:43:42;2.20;;;2.00;;
13483;SDS011;6814;57.786;12.080;2022-12-07T08:46:09;2.33;;;2.00;;
13483;SDS011;6814;57.786;12.080;2022-12-07T08:48:36;2.20;;;2.00;;
13483;SDS011;6814;57.786;12.080;2022-12-07T08:51:04;2.27;;;1.70;;
13483;SDS011;6814;57.786;12.080;2022-12-07T08:53:30;3.20;;;2.20;;
13483;SDS011;6814;57.786;12.080;2022-12-07T08:55:57;2.53;;;1.70;;
13483;SDS011;6814;57.786;12.080;2022-12-07T08:58:25;2.33;;;1.90;;
13483;SDS011;6814;57.786;12.080;2022-12-07T09:00:52;2.40;;;2.00;;
13483;SDS011;6814;57.786;12.080;2022-12-07T09:03:18;3.43;;;1.70;;
13483;SDS011;6814;57.786;12.080;2022-12-07T09:05:45;2.37;;;1.80;;
13483;SDS011;6814;57.786;12.080;2022-12-07T09:08:11;2.00;;;1.80;;
13483;SDS011;6814;57.786;12.080;2022-12-07T09:10:38;2.27;;;1.67;;
13483;SDS011;6814;57.786;12.080;2022-12-07T09:13:04;2.80;;;1.87;;
13483;SDS011;6814;57.786;12.080;2022-12-07T09:15:32;2.80;;;1.80;;
13483;SDS011;6814;57.786;12.080;2022-12-07T09:17:59;4.47;;;2.20;;
13483;SDS011;6814;57.786;12.080;2022-12-07T09:20:25;2.37;;;2.00;;
13483;SDS011;6814;57.786;12.080;2022-12-07T09:22:51;4.07;;;2.67;;
13483;SDS011;6814;57.786;12.080;2022-12-07T09:25:18;2.93;;;2.10;;
13483;SDS011;6814;57.786;12.080;2022-12-07T09:27:44;4.37;;;2.20;;
13483;SDS011;6814;57.786;12.080;2022-12-07T09:30:10;2.10;;;1.90;;
13483;SDS011;6814;57.786;12.080;2022-12-07T09:32:38;3.03;;;1.90;;
13483;SDS011;6814;57.786;12.080;2022-12-07T09:35:05;2.30;;;1.80;;
13483;SDS011;6814;57.786;12.080;2022-12-07T09:37:31;3.73;;;2.17;;
13483;SDS011;6814;57.786;12.080;2022-12-07T09:40:01;3.33;;;2.07;;
13483;SDS011;6814;57.786;12.080;2022-12-07T09:42:28;2.73;;;1.77;;
13483;SDS011;6814;57.786;12.080;2022-12-07T09:44:55;3.47;;;1.67;;
13483;SDS011;6814;57.786;12.080;2022-12-07T09:47:23;2.80;;;2.03;;
13483;SDS011;6814;57.786;12.080;2022-12-07T09:49:51;2.40;;;1.93;;
13483;SDS011;6814;57.786;12.080;2022-12-07T09:52:18;1.47;;;1.33;;
13483;SDS011;6814;57.786;12.080;2022-12-07T09:54:45;4.00;;;1.60;;
13483;SDS011;6814;57.786;12.080;2022-12-07T09:57:12;1.40;;;1.10;;
13483;SDS011;6814;57.786;12.080;2022-12-07T09:59:39;1.63;;;1.20;;
13483;SDS011;6814;57.786;12.080;2022-12-07T10:02:19;3.03;;;1.30;;
13483;SDS011;6814;57.786;12.080;2022-12-07T10:04:48;3.03;;;1.50;;
13483;SDS011;6814;57.786;12.080;2022-12-07T10:07:15;3.73;;;1.37;;
13483;SDS011;6814;57.786;12.080;2022-12-07T10:09:42;2.80;;;1.20;;
13483;SDS011;6814;57.786;12.080;2022-12-07T10:12:09;1.37;;;1.20;;
13483;SDS011;6814;57.786;12.080;2022-12-07T10:14:37;2.03;;;1.27;;
13483;SDS011;6814;57.786;12.080;2022-12-07T10:17:12;3.53;;;1.70;;
13483;SDS011;6814;57.786;12.080;2022-12-07T10:19:51;1.37;;;1.10;;
13483;SDS011;6814;57.786;12.080;2022-12-07T10:22:19;2.00;;;1.20;;
13483;SDS011;6814;57.786;12.080;2022-12-07T10:24:46;2.43;;;1.37;;
13483;SDS011;6814;57.786;12.080;2022-12-07T10:27:19;2.20;;;1.33;;
13483;SDS011;6814;57.786;12.080;2022-12-07T10:29:47;2.53;;;1.40;;
13483;SDS011;6814;57.786;12.080;2022-12-07T10:32:26;1.43;;;1.33;;
13483;SDS011;6814;57.786;12.080;2022-12-07T10:34:59;1.90;;;1.50;;
13483;SDS011;6814;57.786;12.080;2022-12-07T10:37:45;2.37;;;1.57;;
13483;SDS011;6814;57.786;12.080;2022-12-07T10:40:23;5.73;;;3.63;;
13483;SDS011;6814;57.786;12.080;2022-12-07T10:42:59;3.20;;;1.60;;
13483;SDS011;6814;57.786;12.080;2022-12-07T10:45:27;2.60;;;1.43;;
13483;SDS011;6814;57.786;12.080;2022-12-07T10:47:55;2.70;;;1.47;;
13483;SDS011;6814;57.786;12.080;2022-12-07T10:50:29;4.23;;;1.47;;
13483;SDS011;6814;57.786;12.080;2022-12-07T10:53:06;2.30;;;1.30;;
13483;SDS011;6814;57.786;12.080;2022-12-07T10:55:41;1.57;;;1.47;;
13483;SDS011;6814;57.786;12.080;2022-12-07T10:58:15;3.67;;;1.77;;
13483;SDS011;6814;57.786;12.080;2022-12-07T11:00:48;3.77;;;1.53;;
13483;SDS011;6814;57.786;12.080;2022-12-07T11:03:29;1.83;;;1.30;;
13483;SDS011;6814;57.786;12.080;2022-12-07T11:06:01;2.87;;;1.40;;
13483;SDS011;6814;57.786;12.080;2022-12-07T11:08:37;1.33;;;1.23;;
13483;SDS011;6814;57.786;12.080;2022-12-07T11:11:06;2.03;;;1.43;;
13483;SDS011;6814;57.786;12.080;2022-12-07T11:13:37;4.00;;;1.37;;
13483;SDS011;6814;57.786;12.080;2022-12-07T11:16:19;2.03;;;1.53;;
13483;SDS011;6814;57.786;12.080;2022-12-07T11:18:50;1.53;;;1.10;;
13483;SDS011;6814;57.786;12.080;2022-12-07T11:21:19;3.73;;;1.13;;
13483;SDS011;6814;57.786;12.080;2022-12-07T11:24:01;1.43;;;1.00;;
13483;SDS011;6814;57.786;12.080;2022-12-07T11:26:34;2.30;;;1.20;;
13483;SDS011;6814;57.786;12.080;2022-12-07T11:29:10;2.10;;;1.10;;
13483;SDS011;6814;57.786;12.080;2022-12-07T11:31:42;1.27;;;1.03;;
13483;SDS011;6814;57.786;12.080;2022-12-07T11:34:14;2.07;;;1.27;;
13483;SDS011;6814;57.786;12.080;2022-12-07T11:36:44;2.50;;;0.87;;
13483;SDS011;6814;57.786;12.080;2022-12-07T11:39:16;2.63;;;1.30;;
13483;SDS011;6814;57.786;12.080;2022-12-07T11:41:47;2.00;;;1.20;;
13483;SDS011;6814;57.786;12.080;2022-12-07T11:44:17;2.27;;;1.03;;
13483;SDS011;6814;57.786;12.080;2022-12-07T11:46:47;2.20;;;1.13;;
13483;SDS011;6814;57.786;12.080;2022-12-07T11:49:19;2.23;;;1.17;;
13483;SDS011;6814;57.786;12.080;2022-12-07T11:51:47;5.13;;;0.83;;
13483;SDS011;6814;57.786;12.080;2022-12-07T11:54:19;1.00;;;0.80;;
13483;SDS011;6814;57.786;12.080;2022-12-07T11:56:47;1.40;;;1.30;;
13483;SDS011;6814;57.786;12.080;2022-12-07T11:59:16;1.33;;;0.80;;
13483;SDS011;6814;57.786;12.080;2022-12-07T12:01:47;2.33;;;1.20;;
13483;SDS011;6814;57.786;12.080;2022-12-07T12:04:22;1.53;;;0.73;;
13483;SDS011;6814;57.786;12.080;2022-12-07T12:06:49;1.33;;;0.80;;
13483;SDS011;6814;57.786;12.080;2022-12-07T12:09:18;2.07;;;0.80;;
13483;SDS011;6814;57.786;12.080;2022-12-07T12:11:59;1.37;;;0.80;;
13483;SDS011;6814;57.786;12.080;2022-12-07T12:14:35;1.00;;;0.87;;
13483;SDS011;6814;57.786;12.080;2022-12-07T12:17:19;1.33;;;0.70;;
13483;SDS011;6814;57.786;12.080;2022-12-07T12:20:00;1.20;;;0.87;;
13483;SDS011;6814;57.786;12.080;2022-12-07T12:22:28;2.90;;;0.93;;
13483;SDS011;6814;57.786;12.080;2022-12-07T12:24:59;1.80;;;0.80;;
13483;SDS011;6814;57.786;12.080;2022-12-07T12:27:29;1.10;;;0.90;;
13483;SDS011;6814;57.786;12.080;2022-12-07T12:29:57;2.03;;;0.80;;
13483;SDS011;6814;57.786;12.080;2022-12-07T12:32:29;1.93;;;0.97;;
13483;SDS011;6814;57.786;12.080;2022-12-07T12:35:17;1.07;;;0.97;;
13483;SDS011;6814;57.786;12.080;2022-12-07T12:37:47;1.77;;;1.00;;
13483;SDS011;6814;57.786;12.080;2022-12-07T12:43:00;1.20;;;0.90;;
13483;SDS011;6814;57.786;12.080;2022-12-07T12:45:27;1.73;;;0.80;;
13483;SDS011;6814;57.786;12.080;2022-12-07T12:47:55;1.80;;;1.00;;
13483;SDS011;6814;57.786;12.080;2022-12-07T12:50:23;2.03;;;1.03;;
13483;SDS011;6814;57.786;12.080;2022-12-07T12:52:51;2.10;;;1.07;;
13483;SDS011;6814;57.786;12.080;2022-12-07T12:55:25;2.60;;;1.20;;
13483;SDS011;6814;57.786;12.080;2022-12-07T13:00:41;1.10;;;1.00;;
13483;SDS011;6814;57.786;12.080;2022-12-07T13:03:16;1.70;;;1.20;;
13483;SDS011;6814;57.786;12.080;2022-12-07T13:05:47;1.57;;;0.83;;
13483;SDS011;6814;57.786;12.080;2022-12-07T13:08:14;1.77;;;1.10;;
13483;SDS011;6814;57.786;12.080;2022-12-07T13:10:42;2.13;;;1.10;;
13483;SDS011;6814;57.786;12.080;2022-12-07T13:16:16;3.03;;;1.80;;
13483;SDS011;6814;57.786;12.080;2022-12-07T13:18:42;2.13;;;1.53;;
13483;SDS011;6814;57.786;12.080;2022-12-07T13:23:54;2.03;;;1.10;;
13483;SDS011;6814;57.786;12.080;2022-12-07T13:26:22;3.07;;;0.90;;
13483;SDS011;6814;57.786;12.080;2022-12-07T13:28:50;3.03;;;1.23;;
13483;SDS011;6814;57.786;12.080;2022-12-07T13:31:25;2.33;;;1.17;;
13483;SDS011;6814;57.786;12.080;2022-12-07T13:33:54;2.43;;;1.33;;
13483;SDS011;6814;57.786;12.080;2022-12-07T13:36:22;2.50;;;0.90;;
13483;SDS011;6814;57.786;12.080;2022-12-07T13:38:50;0.90;;;0.80;;
13483;SDS011;6814;57.786;12.080;2022-12-07T13:41:17;1.47;;;1.00;;
13483;SDS011;6814;57.786;12.080;2022-12-07T13:43:45;1.97;;;1.20;;
13483;SDS011;6814;57.786;12.080;2022-12-07T13:46:14;2.33;;;1.03;;
13483;SDS011;6814;57.786;12.080;2022-12-07T13:48:44;1.80;;;1.13;;
13483;SDS011;6814;57.786;12.080;2022-12-07T13:51:16;1.23;;;1.00;;
13483;SDS011;6814;57.786;12.080;2022-12-07T13:53:46;2.63;;;1.00;;
13483;SDS011;6814;57.786;12.080;2022-12-07T13:56:12;1.37;;;0.87;;
13483;SDS011;6814;57.786;12.080;2022-12-07T13:58:42;2.03;;;1.10;;
13483;SDS011;6814;57.786;12.080;2022-12-07T14:01:09;2.43;;;1.27;;
13483;SDS011;6814;57.786;12.080;2022-12-07T14:03:36;3.40;;;1.40;;
13483;SDS011;6814;57.786;12.080;2022-12-07T14:06:06;2.27;;;1.10;;
13483;SDS011;6814;57.786;12.080;2022-12-07T14:08:32;2.17;;;1.10;;
13483;SDS011;6814;57.786;12.080;2022-12-07T14:10:59;1.80;;;1.20;;
13483;SDS011;6814;57.786;12.080;2022-12-07T14:13:27;2.87;;;1.37;;
13483;SDS011;6814;57.786;12.080;2022-12-07T14:15:55;3.33;;;1.20;;
13483;SDS011;6814;57.786;12.080;2022-12-07T14:18:25;4.93;;;1.50;;
13483;SDS011;6814;57.786;12.080;2022-12-07T14:21:01;1.50;;;1.40;;
13483;SDS011;6814;57.786;12.080;2022-12-07T14:23:29;2.50;;;1.23;;
13483;SDS011;6814;57.786;12.080;2022-12-07T14:26:04;1.53;;;1.30;;
13483;SDS011;6814;57.786;12.080;2022-12-07T14:28:32;3.07;;;1.40;;
13483;SDS011;6814;57.786;12.080;2022-12-07T14:30:59;3.60;;;1.60;;
13483;SDS011;6814;57.786;12.080;2022-12-07T14:33:27;2.77;;;1.37;;
13483;SDS011;6814;57.786;12.080;2022-12-07T14:35:53;3.47;;;1.73;;
13483;SDS011;6814;57.786;12.080;2022-12-07T14:38:22;2.37;;;1.40;;
13483;SDS011;6814;57.786;12.080;2022-12-07T14:40:50;4.10;;;1.90;;
13483;SDS011;6814;57.786;12.080;2022-12-07T14:43:17;4.20;;;1.93;;
13483;SDS011;6814;57.786;12.080;2022-12-07T14:45:44;2.40;;;1.43;;
13483;SDS011;6814;57.786;12.080;2022-12-07T14:48:11;4.57;;;1.73;;
13483;SDS011;6814;57.786;12.080;2022-12-07T14:50:38;2.90;;;1.67;;
13483;SDS011;6814;57.786;12.080;2022-12-07T14:53:09;2.90;;;1.50;;
13483;SDS011;6814;57.786;12.080;2022-12-07T14:55:39;2.13;;;1.50;;
13483;SDS011;6814;57.786;12.080;2022-12-07T14:58:07;2.47;;;1.43;;
13483;SDS011;6814;57.786;12.080;2022-12-07T15:00:38;2.37;;;1.63;;
13483;SDS011;6814;57.786;12.080;2022-12-07T15:03:04;1.70;;;1.60;;
13483;SDS011;6814;57.786;12.080;2022-12-07T15:05:31;5.03;;;2.20;;
13483;SDS011;6814;57.786;12.080;2022-12-07T15:07:57;3.37;;;2.23;;
13483;SDS011;6814;57.786;12.080;2022-12-07T15:10:25;3.63;;;2.00;;